Flight Track Log - Related Links

Times and Time Zones

All times are in EDT time to prevent confusion due to time zone crossing. See the JBU729 flight status page for this flight to view local times or setup timezone preferences in your user account.

Time Position Orientation Groundspeed Altitude Reporting Facility
EDT Latitude Longitude Course Direction KTS MPH feet Rate Location/Type
Fri 11:58:45 PM 28.4167 -81.3167 138° Southeast 161 185 600  Level Orlando TRACON
Fri 11:59:21 PM 28.4000 -81.3000 139° Southeast 179 206 1,900 1,842 Climbing Orlando TRACON
Sat 12:00:39 AM 28.3500 -81.2333 130° Southeast 266 306 4,100 2,297 Climbing Orlando TRACON
Sat 12:01:00 AM 27.0021 -79.3985 125° Southeast  Level FlightAware
Sat 12:02:00 AM 26.9334 -79.3167 180° South  Level FlightAware
Sat 12:02:16 AM 28.2875 -81.1192 122° Southeast 292 336 8,600  Level Miami Center
Sat 12:03:00 AM 26.8785 -79.2146 122° Southeast  Level FlightAware
Sat 12:03:16 AM 28.2586 -81.0356 111° Southeast 292 336 12,000  Level Miami Center
Sat 12:04:00 AM 26.8178 -79.1178 138° Southeast  Level FlightAware
Sat 12:04:18 AM 28.2383 -80.9431 104° East 298 343 14,100  Level Miami Center
Sat 12:05:16 AM 28.1806 -80.8489 125° Southeast 318 366 16,400 1,897 Climbing Miami Center
Sat 12:06:15 AM 28.1406 -80.7817 124° Southeast 331 381 17,800 1,700 Climbing Miami Center
Sat 12:07:16 AM 28.0786 -80.6808 125° Southeast 341 392 19,800 1,770 Climbing Miami Center
Sat 12:08:17 AM 28.0247 -80.5872 123° Southeast 341 392 21,400 1,550 Climbing Miami Center
Sat 12:09:16 AM 27.9564 -80.4817 126° Southeast 361 415 22,900 1,361 Climbing Miami Center
Sat 12:10:16 AM 27.8944 -80.3786 124° Southeast 389 448 24,100 1,100 Climbing Miami Center
Sat 12:11:16 AM 27.8281 -80.2708 125° Southeast 411 473 25,100 1,000 Climbing Miami Center
Sat 12:12:16 AM 27.7575 -80.1583 125° Southeast 424 488 26,100 1,180 Climbing Miami Center
Sat 12:13:18 AM 27.6850 -80.0414 125° Southeast 440 506 27,500 1,210 Climbing Miami Center
Sat 12:14:15 AM 27.6125 -79.9269 126° Southeast 445 512 28,500 1,017 Climbing Miami Center
Sat 12:15:16 AM 27.5397 -79.8056 124° Southeast 452 520 29,500 836 Climbing Miami Center
Sat 12:16:17 AM 27.4711 -79.6939 125° Southeast 477 549 30,200 1,100 Climbing Miami Center
Sat 12:17:16 AM 27.3942 -79.5678 124° Southeast 490 564 31,700 1,289 Climbing Miami Center
Sat 12:18:18 AM 27.3067 -79.4325 126° Southeast 485 558 32,800 950 Climbing Miami Center
Sat 12:19:16 AM 27.2294 -79.3069 125° Southeast 485 558 33,600 814 Climbing Miami Center
Sat 12:20:16 AM 27.1583 -79.1911 125° Southeast 490 564 34,400 694 Climbing Miami Center
Sat 12:21:17 AM 27.0644 -79.0494 127° Southeast 496 571 35,000 900 Climbing Miami Center
Sat 12:22:16 AM 26.9850 -78.9219 125° Southeast 504 580 36,200 908 Climbing Miami Center
Sat 12:23:16 AM 26.9053 -78.7969 126° Southeast 496 571 36,800 400 Climbing Miami Center
Sat 12:24:16 AM 26.8253 -78.6700 125° Southeast 496 571 37,000 99 Climbing Miami Center
Sat 12:25:17 AM 26.7411 -78.5500 128° Southeast 496 571 37,000  Level Miami Center
Sat 12:26:16 AM 26.6589 -78.4211 126° Southeast 506 582 37,000  Level Miami Center
Sat 12:27:16 AM 26.5789 -78.2944 125° Southeast 506 582 37,000  Level Miami Center
Sat 12:28:15 AM 26.4944 -78.1658 126° Southeast 506 582 37,000  Level Miami Center
Sat 12:29:16 AM 26.4161 -78.0350 124° Southeast 506 582 37,000  Level Miami Center
Sat 12:30:17 AM 26.3356 -77.9114 126° Southeast 506 582 37,000  Level Miami Center
Sat 12:31:17 AM 26.2528 -77.7900 127° Southeast 506 582 37,000  Level Miami Center
Sat 12:32:18 AM 26.1719 -77.6597 125° Southeast 506 582 37,000  Level Miami Center
Sat 12:33:17 AM 26.0892 -77.5319 126° Southeast 506 582 37,000  Level Miami Center
Sat 12:34:17 AM 26.0164 -77.4183 125° Southeast 506 582 37,000  Level Miami Center
Sat 12:35:16 AM 25.9250 -77.2817 127° Southeast 506 582 37,000  Level Miami Center
Sat 12:36:15 AM 25.8417 -77.1544 126° Southeast 501 577 37,000  Level Miami Center
Sat 12:37:18 AM 25.7603 -77.0294 126° Southeast 508 585 37,000  Level Miami Center
Sat 12:38:16 AM 25.6769 -76.9025 126° Southeast 508 585 37,000  Level Miami Center
Sat 12:39:16 AM 25.5933 -76.7803 127° Southeast 508 585 37,000  Level Miami Center
Sat 12:40:18 AM 25.5075 -76.6514 126° Southeast 508 585 37,000  Level Miami Center
Sat 12:41:16 AM 25.4236 -76.5250 126° Southeast 508 585 37,000  Level Miami Center
Sat 12:42:15 AM 25.3417 -76.4036 127° Southeast 508 585 37,000  Level Miami Center
Sat 12:43:16 AM 25.2556 -76.2750 126° Southeast 508 585 37,000  Level Miami Center
Sat 12:44:15 AM 25.1756 -76.1539 126° Southeast 502 578 37,000  Level Miami Center
Sat 12:45:16 AM 25.0956 -76.0350 127° Southeast 497 572 37,000  Level Miami Center
Sat 12:46:15 AM 25.0133 -75.9161 127° Southeast 492 566 37,000  Level Miami Center
Sat 12:47:16 AM 24.9375 -75.8092 128° Southeast 492 566 37,000  Level Miami Center
Sat 12:48:16 AM 24.8531 -75.6883 128° Southeast 487 560 37,000  Level Miami Center
Sat 12:49:15 AM 24.7725 -75.5678 126° Southeast 487 560 37,000  Level Miami Center
Sat 12:50:18 AM 24.6900 -75.4475 127° Southeast 487 560 37,000  Level Miami Center
Sat 12:51:15 AM 24.6050 -75.3250 127° Southeast 487 560 37,000  Level Miami Center
Sat 12:52:15 AM 24.5244 -75.2050 126° Southeast 493 567 37,000  Level Miami Center
Sat 12:53:15 AM 24.4414 -75.0828 127° Southeast 498 573 37,000  Level Miami Center
Sat 12:54:15 AM 24.3586 -74.9656 128° Southeast 493 567 37,000  Level Miami Center
Sat 12:55:15 AM 24.2733 -74.8414 127° Southeast 493 567 37,000  Level Miami Center
Sat 12:56:18 AM 24.1881 -74.7197 128° Southeast 499 574 37,000  Level Miami Center
Sat 12:57:17 AM 24.1047 -74.5983 127° Southeast 499 574 37,000  Level Miami Center
Sat 12:58:15 AM 24.0172 -74.4747 128° Southeast 504 580 37,000  Level Miami Center
Sat 12:59:16 AM 23.9336 -74.3558 128° Southeast 504 580 37,000  Level Miami Center
Sat 01:00:16 AM 23.8481 -74.2350 128° Southeast 504 580 37,000  Level Miami Center
Sat 01:01:15 AM 23.7600 -74.1119 128° Southeast 504 580 37,000  Level Miami Center
Sat 01:02:15 AM 23.6742 -73.9892 127° Southeast 509 586 37,000  Level Miami Center
Sat 01:03:16 AM 23.5797 -73.8597 129° Southeast 509 586 37,000  Level Miami Center
Sat 01:04:18 AM 23.4939 -73.7394 128° Southeast 509 586 37,000  Level Miami Center
Sat 01:05:16 AM 23.4097 -73.6169 127° Southeast 504 580 37,000  Level Miami Center
Sat 01:06:15 AM 23.3256 -73.4994 128° Southeast 504 580 37,000  Level Miami Center
Sat 01:07:15 AM 23.2392 -73.3750 127° Southeast 504 580 37,000  Level Miami Center
Sat 01:08:15 AM 23.1572 -73.2597 128° Southeast 504 580 37,000  Level Miami Center
Sat 01:09:18 AM 23.0686 -73.1428 129° Southeast 504 580 37,000  Level Miami Center
Sat 01:10:16 AM 22.9972 -73.0364 126° Southeast 504 580 37,000  Level Miami Center
Sat 01:11:15 AM 22.9106 -72.9194 129° Southeast 499 574 37,000  Level Miami Center
Sat 01:12:15 AM 22.8281 -72.7981 126° Southeast 499 574 37,000  Level Miami Center
Sat 01:13:19 AM 22.7414 -72.6839 129° Southeast 499 574 37,000  Level Miami Center
Sat 01:14:17 AM 22.6564 -72.5606 127° Southeast 499 574 37,000  Level Miami Center
Sat 01:15:16 AM 22.5717 -72.4442 128° Southeast 499 574 37,000  Level Miami Center
Sat 01:16:15 AM 22.4847 -72.3258 128° Southeast 499 574 37,000  Level Miami Center
Sat 01:17:15 AM 22.3994 -72.2053 127° Southeast 499 574 37,000  Level Miami Center
Sat 01:18:15 AM 22.3103 -72.0875 129° Southeast 499 574 37,000  Level Miami Center
Sat 01:19:15 AM 22.2253 -71.9717 128° Southeast 504 580 37,000  Level Miami Center
Sat 01:20:17 AM 22.1378 -71.8517 128° Southeast 504 580 37,000  Level Miami Center
Sat 01:21:16 AM 22.0483 -71.7342 129° Southeast 504 580 37,000  Level Miami Center
Sat 01:22:16 AM 21.9631 -71.6167 128° Southeast 504 580 37,000  Level Miami Center
Sat 01:23:16 AM 21.8753 -71.4972 128° Southeast 504 580 37,000  Level Miami Center
Sat 01:24:17 AM 21.7878 -71.3803 129° Southeast 504 580 37,000  Level Miami Center
Sat 01:25:15 AM 21.7022 -71.2608 128° Southeast 504 580 37,000  Level Miami Center
Sat 01:26:17 AM 21.6075 -71.1311 128° Southeast 504 580 37,000  Level Miami Center
Sat 01:27:17 AM 21.5194 -71.0078 127° Southeast 511 588 37,000  Level Miami Center
Sat 01:28:15 AM 21.4275 -70.8939 131° Southeast 511 588 37,000  Level Miami Center
Sat 01:29:16 AM 21.3397 -70.7797 130° Southeast 511 588 37,000  Level Miami Center
Sat 01:30:15 AM 21.2517 -70.6658 130° Southeast 506 582 37,000  Level Miami Center
Sat 01:31:17 AM 21.1678 -70.5519 128° Southeast 506 582 37,000  Level Miami Center
Sat 01:32:18 AM 21.0819 -70.4403 129° Southeast 501 577 37,000  Level Miami Center
Sat 01:33:18 AM 20.9958 -70.3289 130° Southeast 501 577 37,000  Level Miami Center
Sat 01:34:16 AM 20.9097 -70.2156 129° Southeast 501 577 37,000  Level Miami Center
Sat 01:35:16 AM 20.8236 -70.1000 129° Southeast 496 571 37,000  Level Miami Center
Sat 01:36:18 AM 20.7356 -69.9914 131° Southeast 491 565 37,000  Level Miami Center
Sat 01:37:15 AM 20.6511 -69.8783 129° Southeast 491 565 37,000  Level Miami Center
Sat 01:38:16 AM 20.5847 -69.7889 128° Southeast 491 565 37,000  Level Miami Center
Sat 01:39:18 AM 20.4894 -69.6678 130° Southeast 486 559 37,000  Level Miami Center
Sat 01:40:16 AM 20.4050 -69.5553 129° Southeast 486 559 37,000  Level Miami Center
Sat 01:41:17 AM 20.3186 -69.4450 130° Southeast 486 559 37,000  Level Miami Center
Sat 01:42:18 AM 20.2322 -69.3328 129° Southeast 486 559 37,000  Level Miami Center
Sat 01:43:16 AM 20.1353 -69.2278 135° Southeast 486 559 37,000  Level Miami Center
Sat 01:44:16 AM 20.0428 -69.1225 133° Southeast 492 566 37,000  Level Miami Center
Sat 01:45:17 AM 19.9481 -69.0178 134° Southeast 497 572 37,000  Level Miami Center
Sat 01:46:17 AM 19.8572 -68.9108 132° Southeast 497 572 37,000 -99 Level Miami Center
Sat 01:47:18 AM 19.7628 -68.8083 134° Southeast 497 572 36,800 -1,160 Descending Miami Center
Sat 01:48:16 AM 19.6742 -68.7081 133° Southeast 487 560 34,700 -2,521 Descending Miami Center
Sat 01:49:17 AM 19.5856 -68.6036 132° Southeast 487 560 31,800 -2,880 Descending Miami Center
Sat 01:49:56 AM 19.5333 -68.5333 128° Southeast 480 552 29,900 -2,820 Descending San Center
Sat 01:50:57 AM 19.4167 -68.4167 137° Southeast 470 541 27,100 -3,025 Descending San Center
Sat 01:51:57 AM 19.3333 -68.3167 131° Southeast 460 529 23,800 -2,950 Descending San Center
Sat 01:52:57 AM 19.2500 -68.2167 131° Southeast 460 529 21,200 -2,430 Descending San Center
Sat 01:53:58 AM 19.1833 -68.1333 130° Southeast 440 506 18,900 -2,628 Descending San Center
Sat 01:54:58 AM 19.0833 -68.0333 137° Southeast 420 483 15,900 -2,650 Descending San Center
Sat 01:55:58 AM 19.0000 -67.9500 137° Southeast 400 460 13,600 -1,934 Descending San Center
Sat 01:56:59 AM 18.9333 -67.8667 130° Southeast 370 426 12,000 -1,587 Descending San Center
Sat 01:57:59 AM 18.8667 -67.7833 130° Southeast 330 380 10,400 -1,450 Descending San Center
Sat 01:58:59 AM 18.8167 -67.7333 137° Southeast 300 345 9,100 -1,388 Descending San Center
Sat 02:00:00 AM 18.7500 -67.6667 137° Southeast 280 322 7,600 -1,388 Descending San Center
Sat 02:01:00 AM 18.7000 -67.6167 137° Southeast 270 311 6,300 -1,300 Descending San Center
Sat 02:02:00 AM 18.6500 -67.5500 128° Southeast 270 311 5,000 -1,388 Descending San Center
Sat 02:03:01 AM 18.6167 -67.4833 118° Southeast 250 288 3,500 -1,140 Descending San Center
Sat 02:04:01 AM 18.5833 -67.4333 125° Southeast 230 265 2,700 -400 Descending San Center
Sat 02:05:01 AM 18.5167 -67.4000 155° Southeast 250 288 2,700  Level San Center
Sat 02:06:02 AM 18.4667 -67.3500 137° Southeast 250 288 2,700  Level San Center
Sat 02:07:02 AM 18.4333 -67.3000 125° Southeast 200 230 2,700 -150 Level San Center
Sat 02:08:02 AM 18.4333 -67.2500 90° East 180 207 2,400 -595 Descending San Center
Sat 02:09:03 AM 18.4667 -67.2000 55° Northeast 170 196 1,500 -793 Descending San Center
Sat 02:10:03 AM 18.4667 -67.1667 90° East 120 138 800 -700 Descending San Center

Login

Don't have an account? Register now (free) for customized features, flight alerts, and more!